Bellshill, United Kingdom
Current Conditions -  °F | °C
As of 3:20 AM on Sunday 23 Nov 2014 (Local Time) from EGPF Reporting Station
Clear Clear  
Wind Chill: 41°   Ceiling: Unl
Heat Index: 41°   Visibility: 6mi
Dew Point: 39°   Wind: 2mph
Humidity: 93%   Direction: 140°SE
Pressure: 29.97"   Gusts: NA
Location:  55.82°N, 4.03°W
Report Text: EGPF 230320Z AUTO 14002KT 9999 NCD 05/04 Q1015
Loading
Personal Weather Stations






























Interactive Weather Map New forecast layout! Learn more

10-Day Weather Forecast

Advertisements
Track Severe Weather on mobile